createdAt,value
2023-05-04T00:03:05.814Z,61.68
2023-05-04T00:08:30.914Z,61.69
2023-05-04T00:13:55.444Z,61.95
2023-05-04T00:19:20.337Z,71.27
2023-05-04T00:24:45.178Z,76.54
2023-05-04T00:30:09.492Z,72.10
2023-05-04T00:35:33.632Z,66.88
2023-05-04T00:40:59.353Z,62.63
2023-05-04T00:46:23.846Z,53.54
2023-05-04T00:51:50.198Z,48.65
2023-05-04T00:57:16.623Z,48.96
2023-05-04T01:02:42.161Z,50.09
2023-05-04T01:08:18.364Z,51.22
2023-05-04T01:13:43.452Z,52.52
2023-05-04T01:19:08.952Z,53.89
2023-05-04T01:24:34.389Z,55.05
2023-05-04T01:30:07.030Z,56.04
2023-05-04T01:35:31.255Z,56.75
2023-05-04T01:40:55.247Z,57.46
2023-05-04T01:46:19.185Z,58.27
2023-05-04T01:51:43.895Z,58.90
2023-05-04T01:57:08.158Z,59.44
2023-05-04T02:02:32.918Z,59.86
2023-05-04T02:07:56.988Z,60.32
2023-05-04T02:13:23.459Z,60.68
2023-05-04T02:18:47.506Z,60.90
2023-05-04T02:24:13.031Z,61.22
2023-05-04T02:29:39.448Z,61.48
2023-05-04T02:35:05.138Z,71.11
2023-05-04T02:40:29.590Z,76.95
2023-05-04T02:45:54.416Z,71.75
2023-05-04T02:51:19.393Z,65.81
2023-05-04T02:56:43.811Z,62.04
2023-05-04T03:02:08.274Z,53.66
2023-05-04T03:07:32.838Z,48.74
2023-05-04T03:12:57.260Z,48.97
2023-05-04T03:18:23.257Z,50.36
2023-05-04T03:23:47.396Z,51.64
2023-05-04T03:29:12.100Z,52.94
2023-05-04T03:34:37.308Z,54.45
2023-05-04T03:40:03.781Z,55.64
2023-05-04T03:45:28.882Z,56.53
2023-05-04T03:50:54.578Z,57.26
2023-05-04T03:56:18.587Z,57.90
2023-05-04T04:01:44.366Z,58.67
2023-05-04T04:07:09.508Z,59.45
2023-05-04T04:12:34.599Z,60.28
2023-05-04T04:17:58.379Z,60.84
2023-05-04T04:23:22.567Z,61.30
2023-05-04T04:28:50.871Z,71.11
2023-05-04T04:34:15.028Z,76.59
2023-05-04T04:39:40.084Z,71.66
2023-05-04T04:45:06.055Z,65.96
2023-05-04T04:50:30.674Z,61.65
2023-05-04T04:55:54.918Z,53.70
2023-05-04T05:01:19.292Z,49.25
2023-05-04T05:06:43.808Z,49.60
2023-05-04T05:12:08.865Z,51.18
2023-05-04T05:17:35.930Z,52.28
2023-05-04T05:23:00.665Z,55.11
2023-05-04T05:28:25.199Z,56.52
2023-05-04T05:33:49.489Z,57.23
2023-05-04T05:39:13.592Z,57.67
2023-05-04T05:44:38.628Z,58.26
2023-05-04T05:50:04.759Z,60.66
2023-05-04T05:55:29.288Z,71.73
2023-05-04T06:00:53.039Z,74.49
2023-05-04T06:06:17.579Z,69.11
2023-05-04T06:11:42.554Z,64.08
2023-05-04T06:17:07.655Z,54.79
2023-05-04T06:22:32.765Z,50.23
2023-05-04T06:27:56.924Z,51.80
2023-05-04T06:33:21.510Z,52.39
2023-05-04T06:38:45.838Z,53.51
2023-05-04T06:44:10.695Z,53.74
2023-05-04T06:49:35.371Z,53.79
2023-05-04T06:55:02.399Z,55.04
2023-05-04T07:00:27.258Z,54.48
2023-05-04T07:05:52.054Z,54.49
2023-05-04T07:11:15.801Z,54.73
2023-05-04T07:16:40.748Z,54.09
2023-05-04T07:22:05.601Z,54.28
2023-05-04T07:27:30.437Z,53.56
2023-05-04T07:32:54.724Z,52.11
2023-05-04T07:38:19.043Z,51.95
2023-05-04T07:43:43.267Z,50.17
2023-05-04T07:49:08.686Z,50.21
2023-05-04T07:54:34.226Z,49.40
2023-05-04T07:59:58.680Z,48.66
2023-05-04T08:05:22.720Z,48.44
2023-05-04T08:10:47.408Z,47.98
2023-05-04T08:16:11.512Z,47.82
2023-05-04T08:21:36.280Z,47.94
2023-05-04T08:27:08.165Z,48.04
2023-05-04T08:32:34.875Z,48.13
2023-05-04T08:37:59.205Z,48.04
2023-05-04T08:43:23.687Z,47.82
2023-05-04T08:48:48.401Z,47.48
2023-05-04T08:54:13.520Z,47.25
2023-05-04T08:59:38.387Z,47.28
2023-05-04T09:05:03.517Z,46.80
2023-05-04T09:10:29.513Z,46.46
2023-05-04T09:15:58.269Z,46.36
2023-05-04T09:21:30.583Z,45.63
2023-05-04T09:26:56.341Z,45.96
2023-05-04T09:32:21.339Z,45.81
2023-05-04T09:37:47.211Z,45.75
2023-05-04T09:43:11.064Z,45.33
2023-05-04T09:48:36.595Z,45.76
2023-05-04T09:54:03.544Z,45.82
2023-05-04T09:59:32.069Z,45.37
2023-05-04T10:04:59.003Z,45.85
2023-05-04T10:10:24.181Z,46.08
2023-05-04T10:16:00.294Z,45.73
2023-05-04T10:21:31.038Z,45.73
2023-05-04T10:27:16.416Z,45.19
2023-05-04T10:32:41.626Z,45.11
2023-05-04T10:38:06.852Z,45.46
2023-05-04T10:43:33.117Z,45.00
2023-05-04T10:48:57.769Z,45.09
2023-05-04T10:54:22.133Z,44.45
2023-05-04T10:59:57.382Z,43.94
2023-05-04T11:05:21.919Z,43.93
2023-05-04T11:10:48.297Z,43.49
2023-05-04T11:16:13.748Z,43.81
2023-05-04T11:21:38.324Z,43.80
2023-05-04T11:27:03.768Z,43.37
2023-05-04T11:32:38.734Z,43.22
2023-05-04T11:38:03.437Z,43.11
2023-05-04T11:43:28.670Z,43.80
2023-05-04T11:48:54.087Z,43.02
2023-05-04T11:54:22.538Z,42.85
2023-05-04T11:59:50.608Z,42.87
2023-05-04T12:05:14.668Z,42.59
2023-05-04T12:10:39.148Z,41.78
2023-05-04T12:16:13.935Z,41.23
2023-05-04T12:21:55.394Z,40.47
2023-05-04T12:27:19.142Z,40.83
2023-05-04T12:32:44.516Z,41.04
2023-05-04T12:38:09.118Z,41.08
2023-05-04T12:43:34.290Z,40.43
2023-05-04T12:48:59.301Z,40.71
2023-05-04T12:54:24.384Z,39.76
2023-05-04T12:59:48.775Z,39.48
2023-05-04T13:05:13.481Z,39.18
2023-05-04T13:10:37.858Z,39.40
2023-05-04T13:16:02.308Z,38.94
2023-05-04T13:21:27.041Z,38.73
2023-05-04T13:26:51.925Z,38.08
2023-05-04T13:32:16.538Z,38.63
2023-05-04T13:37:40.425Z,37.44
2023-05-04T13:43:05.068Z,37.91
2023-05-04T13:48:32.980Z,37.30
2023-05-04T13:53:57.457Z,37.54
2023-05-04T13:59:22.197Z,37.77
2023-05-04T14:04:46.369Z,36.93
2023-05-04T14:10:11.126Z,37.03
2023-05-04T14:15:35.613Z,37.03
2023-05-04T14:21:00.015Z,37.52
2023-05-04T14:26:24.456Z,37.67
2023-05-04T14:31:48.933Z,37.69
2023-05-04T14:37:13.484Z,37.13
2023-05-04T14:42:38.658Z,37.02
2023-05-04T14:48:02.774Z,37.15
2023-05-04T14:53:27.800Z,36.89
2023-05-04T14:58:51.973Z,37.72
2023-05-04T15:04:17.449Z,37.78
2023-05-04T15:09:42.132Z,37.98
2023-05-04T15:15:06.544Z,38.03
2023-05-04T15:20:30.366Z,38.32
2023-05-04T15:25:54.855Z,38.20
2023-05-04T15:31:19.515Z,38.25
2023-05-04T15:36:44.590Z,38.25
2023-05-04T15:42:09.252Z,38.29
2023-05-04T15:47:33.122Z,38.31
2023-05-04T15:52:57.330Z,38.57
2023-05-04T15:58:21.918Z,39.00
2023-05-04T16:03:47.534Z,39.16
2023-05-04T16:09:12.348Z,39.15
2023-05-04T16:14:36.763Z,39.14
2023-05-04T16:20:08.755Z,39.46
2023-05-04T16:25:33.595Z,39.55
2023-05-04T16:30:58.317Z,39.83
2023-05-04T16:36:23.807Z,39.98
2023-05-04T16:41:48.928Z,40.57
2023-05-04T16:47:13.548Z,41.20
2023-05-04T16:52:39.079Z,41.73
2023-05-04T16:58:03.665Z,42.17
2023-05-04T17:03:28.785Z,42.80
2023-05-04T17:08:53.513Z,43.02
2023-05-04T17:14:18.028Z,43.35
2023-05-04T17:19:43.512Z,43.36
2023-05-04T17:25:09.653Z,43.83
2023-05-04T17:30:35.983Z,43.96
2023-05-04T17:36:00.691Z,44.47
2023-05-04T17:41:25.590Z,44.96
2023-05-04T17:46:50.374Z,45.32
2023-05-04T17:52:14.818Z,45.46
2023-05-04T17:57:39.093Z,45.80
2023-05-04T18:03:03.772Z,45.77
2023-05-04T18:08:28.155Z,45.81
2023-05-04T18:13:54.355Z,45.98
2023-05-04T18:19:24.756Z,46.00
2023-05-04T18:24:50.161Z,46.20
2023-05-04T18:30:14.878Z,46.41
2023-05-04T18:35:38.990Z,46.84
2023-05-04T18:41:04.100Z,47.33
2023-05-04T18:46:28.536Z,47.79
2023-05-04T18:51:53.249Z,48.30
2023-05-04T18:57:17.687Z,48.89
2023-05-04T19:02:42.568Z,49.36
2023-05-04T19:08:06.557Z,49.96
2023-05-04T19:13:31.588Z,50.55
2023-05-04T19:18:56.723Z,51.04
2023-05-04T19:24:21.658Z,51.45
2023-05-04T19:29:45.947Z,51.94
2023-05-04T19:35:09.976Z,52.21
2023-05-04T19:40:34.929Z,52.45
2023-05-04T19:45:59.403Z,52.51
2023-05-04T19:51:23.982Z,53.17
2023-05-04T19:56:48.777Z,53.60
2023-05-04T20:02:12.916Z,53.87
2023-05-04T20:07:37.909Z,53.83
2023-05-04T20:13:02.194Z,53.88
2023-05-04T20:18:26.302Z,54.05
2023-05-04T20:23:50.630Z,54.54
2023-05-04T20:29:16.945Z,55.12
2023-05-04T20:34:44.184Z,55.53
2023-05-04T20:40:09.516Z,55.80
2023-05-04T20:45:34.640Z,56.02
2023-05-04T20:51:10.444Z,56.25
2023-05-04T20:56:39.268Z,56.36
2023-05-04T21:02:04.489Z,56.60
2023-05-04T21:07:29.644Z,56.79
2023-05-04T21:12:57.859Z,56.81
2023-05-04T21:18:27.035Z,57.10
2023-05-04T21:23:52.303Z,57.41
2023-05-04T21:29:17.029Z,57.92
2023-05-04T21:34:41.484Z,58.42
2023-05-04T21:40:06.656Z,58.74
2023-05-04T21:45:32.018Z,58.97
2023-05-04T21:50:56.767Z,59.08
2023-05-04T21:56:21.374Z,59.27
2023-05-04T22:01:47.001Z,59.35
2023-05-04T22:07:11.998Z,59.27
2023-05-04T22:12:36.337Z,59.24
2023-05-04T22:18:00.668Z,59.40
2023-05-04T22:23:25.683Z,59.38
2023-05-04T22:28:51.046Z,59.50
2023-05-04T22:34:16.161Z,59.82
2023-05-04T22:39:41.789Z,60.03
2023-05-04T22:45:07.030Z,60.19
2023-05-04T22:50:32.206Z,60.29
2023-05-04T22:55:56.911Z,60.55
2023-05-04T23:01:21.927Z,60.76
2023-05-04T23:06:47.294Z,61.04
2023-05-04T23:12:13.853Z,61.30
2023-05-04T23:17:39.159Z,61.57
2023-05-04T23:23:03.580Z,61.86
2023-05-04T23:28:27.972Z,61.97
2023-05-04T23:33:52.472Z,71.25
2023-05-04T23:39:17.428Z,74.71
2023-05-04T23:44:41.915Z,69.59
2023-05-04T23:50:08.368Z,64.63
2023-05-04T23:55:32.904Z,61.09
